sensor_id;sensor_type;location;lat;lon;timestamp;P1;durP1;ratioP1;P2;durP2;ratioP2
72920;SDS011;61064;51.654;5.476;2023-04-01T00:00:54;7.23;;;1.87;;
72920;SDS011;61064;51.654;5.476;2023-04-01T00:03:21;8.02;;;1.50;;
72920;SDS011;61064;51.654;5.476;2023-04-01T00:05:47;5.85;;;1.23;;
72920;SDS011;61064;51.654;5.476;2023-04-01T00:08:13;8.03;;;1.80;;
72920;SDS011;61064;51.654;5.476;2023-04-01T00:10:39;7.10;;;1.53;;
72920;SDS011;61064;51.654;5.476;2023-04-01T00:13:04;7.38;;;1.80;;
72920;SDS011;61064;51.654;5.476;2023-04-01T00:15:30;7.50;;;1.30;;
72920;SDS011;61064;51.654;5.476;2023-04-01T00:17:55;6.30;;;1.55;;
72920;SDS011;61064;51.654;5.476;2023-04-01T00:20:21;8.10;;;1.60;;
72920;SDS011;61064;51.654;5.476;2023-04-01T00:22:47;7.17;;;1.60;;
72920;SDS011;61064;51.654;5.476;2023-04-01T00:25:13;6.15;;;1.70;;
72920;SDS011;61064;51.654;5.476;2023-04-01T00:27:38;6.87;;;2.00;;
72920;SDS011;61064;51.654;5.476;2023-04-01T00:30:04;7.80;;;2.20;;
72920;SDS011;61064;51.654;5.476;2023-04-01T00:32:30;8.77;;;2.30;;
72920;SDS011;61064;51.654;5.476;2023-04-01T00:34:56;5.93;;;2.10;;
72920;SDS011;61064;51.654;5.476;2023-04-01T00:37:24;8.00;;;2.47;;
72920;SDS011;61064;51.654;5.476;2023-04-01T00:39:50;7.43;;;2.65;;
72920;SDS011;61064;51.654;5.476;2023-04-01T00:42:16;7.57;;;2.60;;
72920;SDS011;61064;51.654;5.476;2023-04-01T00:44:41;6.67;;;2.93;;
72920;SDS011;61064;51.654;5.476;2023-04-01T00:47:07;9.13;;;3.30;;
72920;SDS011;61064;51.654;5.476;2023-04-01T00:49:34;8.15;;;3.22;;
72920;SDS011;61064;51.654;5.476;2023-04-01T00:52:04;8.82;;;3.25;;
72920;SDS011;61064;51.654;5.476;2023-04-01T00:54:32;9.70;;;3.50;;
72920;SDS011;61064;51.654;5.476;2023-04-01T00:56:59;8.65;;;3.67;;
72920;SDS011;61064;51.654;5.476;2023-04-01T00:59:30;8.43;;;3.78;;
72920;SDS011;61064;51.654;5.476;2023-04-01T01:02:02;9.45;;;4.45;;
72920;SDS011;61064;51.654;5.476;2023-04-01T01:04:31;8.80;;;4.80;;
72920;SDS011;61064;51.654;5.476;2023-04-01T01:07:02;10.50;;;4.53;;
72920;SDS011;61064;51.654;5.476;2023-04-01T01:15:31;10.95;;;4.93;;
72920;SDS011;61064;51.654;5.476;2023-04-01T01:18:23;10.38;;;4.78;;
72920;SDS011;61064;51.654;5.476;2023-04-01T01:23:38;10.27;;;5.47;;
72920;SDS011;61064;51.654;5.476;2023-04-01T01:28:52;12.18;;;5.47;;
72920;SDS011;61064;51.654;5.476;2023-04-01T01:37:08;12.35;;;5.57;;
72920;SDS011;61064;51.654;5.476;2023-04-01T01:39:38;10.90;;;5.35;;
72920;SDS011;61064;51.654;5.476;2023-04-01T01:42:07;10.20;;;5.40;;
72920;SDS011;61064;51.654;5.476;2023-04-01T01:44:36;11.00;;;5.55;;
72920;SDS011;61064;51.654;5.476;2023-04-01T01:47:03;10.17;;;4.90;;
72920;SDS011;61064;51.654;5.476;2023-04-01T01:49:28;9.38;;;4.88;;
72920;SDS011;61064;51.654;5.476;2023-04-01T01:51:57;9.55;;;4.25;;
72920;SDS011;61064;51.654;5.476;2023-04-01T01:54:23;8.93;;;3.30;;
72920;SDS011;61064;51.654;5.476;2023-04-01T01:56:49;8.80;;;3.27;;
72920;SDS011;61064;51.654;5.476;2023-04-01T01:59:19;6.97;;;2.90;;
72920;SDS011;61064;51.654;5.476;2023-04-01T02:01:49;7.10;;;3.13;;
72920;SDS011;61064;51.654;5.476;2023-04-01T02:04:17;7.30;;;3.20;;
72920;SDS011;61064;51.654;5.476;2023-04-01T02:06:46;8.07;;;3.20;;
72920;SDS011;61064;51.654;5.476;2023-04-01T02:09:18;8.00;;;2.80;;
72920;SDS011;61064;51.654;5.476;2023-04-01T02:11:51;7.57;;;2.70;;
72920;SDS011;61064;51.654;5.476;2023-04-01T02:14:21;7.53;;;2.77;;
72920;SDS011;61064;51.654;5.476;2023-04-01T02:16:55;6.30;;;2.38;;
72920;SDS011;61064;51.654;5.476;2023-04-01T02:19:41;7.07;;;2.22;;
72920;SDS011;61064;51.654;5.476;2023-04-01T02:22:14;5.20;;;1.42;;
72920;SDS011;61064;51.654;5.476;2023-04-01T02:24:46;5.75;;;1.20;;
72920;SDS011;61064;51.654;5.476;2023-04-01T02:27:14;4.63;;;1.10;;
72920;SDS011;61064;51.654;5.476;2023-04-01T02:29:39;4.28;;;1.00;;
72920;SDS011;61064;51.654;5.476;2023-04-01T02:32:05;5.37;;;1.40;;
72920;SDS011;61064;51.654;5.476;2023-04-01T02:34:31;5.68;;;1.30;;
72920;SDS011;61064;51.654;5.476;2023-04-01T02:36:58;5.07;;;1.30;;
72920;SDS011;61064;51.654;5.476;2023-04-01T02:39:24;4.33;;;1.37;;
72920;SDS011;61064;51.654;5.476;2023-04-01T02:41:51;4.60;;;1.30;;
72920;SDS011;61064;51.654;5.476;2023-04-01T02:44:17;4.97;;;1.20;;
72920;SDS011;61064;51.654;5.476;2023-04-01T02:46:43;5.38;;;1.42;;
72920;SDS011;61064;51.654;5.476;2023-04-01T02:49:09;5.37;;;1.40;;
72920;SDS011;61064;51.654;5.476;2023-04-01T02:51:35;5.18;;;1.20;;
72920;SDS011;61064;51.654;5.476;2023-04-01T02:54:00;6.40;;;1.37;;
72920;SDS011;61064;51.654;5.476;2023-04-01T02:56:26;4.50;;;1.20;;
72920;SDS011;61064;51.654;5.476;2023-04-01T02:58:52;6.20;;;1.47;;
72920;SDS011;61064;51.654;5.476;2023-04-01T03:01:18;6.60;;;1.70;;
72920;SDS011;61064;51.654;5.476;2023-04-01T03:03:44;6.18;;;1.60;;
72920;SDS011;61064;51.654;5.476;2023-04-01T03:06:11;7.33;;;1.47;;
72920;SDS011;61064;51.654;5.476;2023-04-01T03:08:38;4.95;;;1.30;;
72920;SDS011;61064;51.654;5.476;2023-04-01T03:11:03;6.70;;;1.53;;
72920;SDS011;61064;51.654;5.476;2023-04-01T03:13:29;6.05;;;1.30;;
72920;SDS011;61064;51.654;5.476;2023-04-01T03:15:55;5.33;;;1.40;;
72920;SDS011;61064;51.654;5.476;2023-04-01T03:18:20;5.50;;;1.33;;
72920;SDS011;61064;51.654;5.476;2023-04-01T03:20:45;5.40;;;1.40;;
72920;SDS011;61064;51.654;5.476;2023-04-01T03:23:11;5.43;;;1.50;;
72920;SDS011;61064;51.654;5.476;2023-04-01T03:25:36;5.97;;;1.67;;
72920;SDS011;61064;51.654;5.476;2023-04-01T03:28:02;7.77;;;1.93;;
72920;SDS011;61064;51.654;5.476;2023-04-01T03:30:28;6.13;;;2.10;;
72920;SDS011;61064;51.654;5.476;2023-04-01T03:32:56;7.03;;;2.40;;
72920;SDS011;61064;51.654;5.476;2023-04-01T03:35:27;7.63;;;2.00;;
72920;SDS011;61064;51.654;5.476;2023-04-01T03:37:52;8.50;;;2.40;;
72920;SDS011;61064;51.654;5.476;2023-04-01T03:40:18;7.60;;;2.30;;
72920;SDS011;61064;51.654;5.476;2023-04-01T03:42:44;6.53;;;2.20;;
72920;SDS011;61064;51.654;5.476;2023-04-01T03:45:09;5.97;;;1.87;;
72920;SDS011;61064;51.654;5.476;2023-04-01T03:47:36;7.15;;;2.40;;
72920;SDS011;61064;51.654;5.476;2023-04-01T03:50:02;6.57;;;2.27;;
72920;SDS011;61064;51.654;5.476;2023-04-01T03:52:28;6.07;;;2.13;;
72920;SDS011;61064;51.654;5.476;2023-04-01T03:54:53;8.10;;;2.40;;
72920;SDS011;61064;51.654;5.476;2023-04-01T03:57:19;6.80;;;2.70;;
72920;SDS011;61064;51.654;5.476;2023-04-01T03:59:44;6.47;;;2.38;;
72920;SDS011;61064;51.654;5.476;2023-04-01T04:02:09;6.70;;;2.70;;
72920;SDS011;61064;51.654;5.476;2023-04-01T04:04:35;6.30;;;2.10;;
72920;SDS011;61064;51.654;5.476;2023-04-01T04:07:00;6.30;;;2.30;;
72920;SDS011;61064;51.654;5.476;2023-04-01T04:09:25;8.27;;;2.50;;
72920;SDS011;61064;51.654;5.476;2023-04-01T04:11:51;5.87;;;2.10;;
72920;SDS011;61064;51.654;5.476;2023-04-01T04:14:16;6.87;;;2.20;;
72920;SDS011;61064;51.654;5.476;2023-04-01T04:16:42;7.18;;;2.30;;
72920;SDS011;61064;51.654;5.476;2023-04-01T04:19:07;6.93;;;1.97;;
72920;SDS011;61064;51.654;5.476;2023-04-01T04:21:33;8.77;;;2.10;;
72920;SDS011;61064;51.654;5.476;2023-04-01T04:23:59;7.45;;;1.98;;
72920;SDS011;61064;51.654;5.476;2023-04-01T04:26:25;6.17;;;2.13;;
72920;SDS011;61064;51.654;5.476;2023-04-01T04:28:51;5.32;;;2.05;;
72920;SDS011;61064;51.654;5.476;2023-04-01T04:31:19;6.83;;;2.00;;
72920;SDS011;61064;51.654;5.476;2023-04-01T04:33:46;6.20;;;2.33;;
72920;SDS011;61064;51.654;5.476;2023-04-01T04:36:11;6.03;;;2.10;;
72920;SDS011;61064;51.654;5.476;2023-04-01T04:38:37;7.80;;;2.10;;
72920;SDS011;61064;51.654;5.476;2023-04-01T04:41:02;6.30;;;2.13;;
72920;SDS011;61064;51.654;5.476;2023-04-01T04:43:27;6.80;;;2.23;;
72920;SDS011;61064;51.654;5.476;2023-04-01T04:45:53;6.30;;;2.27;;
72920;SDS011;61064;51.654;5.476;2023-04-01T04:48:18;6.03;;;2.20;;
72920;SDS011;61064;51.654;5.476;2023-04-01T04:50:45;6.90;;;2.65;;
72920;SDS011;61064;51.654;5.476;2023-04-01T04:53:15;7.68;;;2.88;;
72920;SDS011;61064;51.654;5.476;2023-04-01T04:55:45;7.75;;;2.88;;
72920;SDS011;61064;51.654;5.476;2023-04-01T04:58:12;7.13;;;2.70;;
72920;SDS011;61064;51.654;5.476;2023-04-01T05:00:37;7.23;;;3.00;;
72920;SDS011;61064;51.654;5.476;2023-04-01T05:03:02;9.33;;;3.20;;
72920;SDS011;61064;51.654;5.476;2023-04-01T05:05:28;8.03;;;2.73;;
72920;SDS011;61064;51.654;5.476;2023-04-01T05:07:53;8.50;;;3.38;;
72920;SDS011;61064;51.654;5.476;2023-04-01T05:10:19;8.93;;;3.63;;
72920;SDS011;61064;51.654;5.476;2023-04-01T05:12:45;8.98;;;4.20;;
72920;SDS011;61064;51.654;5.476;2023-04-01T05:15:11;8.57;;;3.53;;
72920;SDS011;61064;51.654;5.476;2023-04-01T05:17:37;8.10;;;3.80;;
72920;SDS011;61064;51.654;5.476;2023-04-01T05:20:02;8.27;;;3.50;;
72920;SDS011;61064;51.654;5.476;2023-04-01T05:22:28;8.97;;;3.87;;
72920;SDS011;61064;51.654;5.476;2023-04-01T05:24:53;8.40;;;3.40;;
72920;SDS011;61064;51.654;5.476;2023-04-01T05:27:18;8.57;;;3.53;;
72920;SDS011;61064;51.654;5.476;2023-04-01T05:29:44;9.67;;;3.50;;
72920;SDS011;61064;51.654;5.476;2023-04-01T05:32:09;8.20;;;3.73;;
72920;SDS011;61064;51.654;5.476;2023-04-01T05:34:34;8.30;;;3.70;;
72920;SDS011;61064;51.654;5.476;2023-04-01T05:37:00;9.03;;;3.80;;
72920;SDS011;61064;51.654;5.476;2023-04-01T05:39:25;8.97;;;4.53;;
72920;SDS011;61064;51.654;5.476;2023-04-01T05:41:51;9.27;;;4.60;;
72920;SDS011;61064;51.654;5.476;2023-04-01T05:44:16;11.00;;;4.87;;
72920;SDS011;61064;51.654;5.476;2023-04-01T05:46:42;10.75;;;5.32;;
72920;SDS011;61064;51.654;5.476;2023-04-01T05:49:08;11.93;;;5.77;;
72920;SDS011;61064;51.654;5.476;2023-04-01T05:51:33;12.40;;;5.63;;
72920;SDS011;61064;51.654;5.476;2023-04-01T05:53:58;12.50;;;6.13;;
72920;SDS011;61064;51.654;5.476;2023-04-01T05:56:24;13.73;;;6.03;;
72920;SDS011;61064;51.654;5.476;2023-04-01T05:58:53;14.77;;;6.97;;
72920;SDS011;61064;51.654;5.476;2023-04-01T06:01:19;17.40;;;7.10;;
72920;SDS011;61064;51.654;5.476;2023-04-01T06:03:45;15.20;;;7.13;;
72920;SDS011;61064;51.654;5.476;2023-04-01T06:06:14;17.53;;;7.30;;
72920;SDS011;61064;51.654;5.476;2023-04-01T06:08:44;16.17;;;7.63;;
72920;SDS011;61064;51.654;5.476;2023-04-01T06:11:16;17.40;;;7.43;;
72920;SDS011;61064;51.654;5.476;2023-04-01T06:14:10;16.03;;;6.63;;
72920;SDS011;61064;51.654;5.476;2023-04-01T06:21:59;14.80;;;6.22;;
72920;SDS011;61064;51.654;5.476;2023-04-01T06:25:29;16.80;;;6.55;;
72920;SDS011;61064;51.654;5.476;2023-04-01T06:44:37;15.73;;;5.60;;
72920;SDS011;61064;51.654;5.476;2023-04-01T06:47:23;17.13;;;6.07;;
72920;SDS011;61064;51.654;5.476;2023-04-01T06:56:08;17.03;;;5.73;;
72920;SDS011;61064;51.654;5.476;2023-04-01T06:58:39;19.83;;;6.82;;
72920;SDS011;61064;51.654;5.476;2023-04-01T07:01:12;18.02;;;6.25;;
72920;SDS011;61064;51.654;5.476;2023-04-01T07:03:43;18.45;;;6.50;;
72920;SDS011;61064;51.654;5.476;2023-04-01T07:06:17;19.23;;;7.38;;
72920;SDS011;61064;51.654;5.476;2023-04-01T07:08:51;18.83;;;7.00;;
72920;SDS011;61064;51.654;5.476;2023-04-01T07:11:24;16.67;;;6.35;;
72920;SDS011;61064;51.654;5.476;2023-04-01T07:14:04;18.33;;;7.20;;
72920;SDS011;61064;51.654;5.476;2023-04-01T07:16:59;20.58;;;6.53;;
72920;SDS011;61064;51.654;5.476;2023-04-01T07:19:32;18.73;;;6.32;;
72920;SDS011;61064;51.654;5.476;2023-04-01T07:22:17;19.33;;;6.77;;
72920;SDS011;61064;51.654;5.476;2023-04-01T07:24:54;17.60;;;6.75;;
72920;SDS011;61064;51.654;5.476;2023-04-01T07:27:19;18.43;;;6.57;;
72920;SDS011;61064;51.654;5.476;2023-04-01T07:29:44;14.15;;;5.93;;
72920;SDS011;61064;51.654;5.476;2023-04-01T07:32:15;17.37;;;6.50;;
72920;SDS011;61064;51.654;5.476;2023-04-01T07:34:53;16.85;;;6.05;;
72920;SDS011;61064;51.654;5.476;2023-04-01T07:41:03;15.68;;;5.72;;
72920;SDS011;61064;51.654;5.476;2023-04-01T07:51:22;17.45;;;5.50;;
72920;SDS011;61064;51.654;5.476;2023-04-01T07:54:19;11.43;;;4.87;;
72920;SDS011;61064;51.654;5.476;2023-04-01T08:03:08;15.80;;;5.15;;
72920;SDS011;61064;51.654;5.476;2023-04-01T08:05:57;14.82;;;5.80;;
72920;SDS011;61064;51.654;5.476;2023-04-01T08:13:41;16.65;;;6.47;;
72920;SDS011;61064;51.654;5.476;2023-04-01T08:16:23;19.08;;;6.35;;
72920;SDS011;61064;51.654;5.476;2023-04-01T08:19:03;17.08;;;6.40;;
72920;SDS011;61064;51.654;5.476;2023-04-01T08:21:47;15.80;;;6.90;;
72920;SDS011;61064;51.654;5.476;2023-04-01T08:26:56;18.08;;;7.20;;
72920;SDS011;61064;51.654;5.476;2023-04-01T08:30:15;19.08;;;7.32;;
72920;SDS011;61064;51.654;5.476;2023-04-01T08:32:41;18.45;;;6.80;;
72920;SDS011;61064;51.654;5.476;2023-04-01T08:38:06;16.40;;;6.80;;
72920;SDS011;61064;51.654;5.476;2023-04-01T08:43:37;19.75;;;7.70;;
72920;SDS011;61064;51.654;5.476;2023-04-01T08:46:06;18.00;;;7.22;;
72920;SDS011;61064;51.654;5.476;2023-04-01T08:48:39;19.53;;;7.50;;
72920;SDS011;61064;51.654;5.476;2023-04-01T08:51:39;17.35;;;7.78;;
72920;SDS011;61064;51.654;5.476;2023-04-01T08:56:50;18.95;;;8.20;;
72920;SDS011;61064;51.654;5.476;2023-04-01T08:59:27;18.83;;;7.13;;
72920;SDS011;61064;51.654;5.476;2023-04-01T09:10:44;18.10;;;6.85;;
72920;SDS011;61064;51.654;5.476;2023-04-01T09:17:14;18.27;;;6.33;;
72920;SDS011;61064;51.654;5.476;2023-04-01T09:25:08;14.18;;;6.20;;
72920;SDS011;61064;51.654;5.476;2023-04-01T09:30:32;16.53;;;6.00;;
72920;SDS011;61064;51.654;5.476;2023-04-01T09:35:39;16.15;;;6.25;;
72920;SDS011;61064;51.654;5.476;2023-04-01T09:40:57;15.57;;;5.97;;
72920;SDS011;61064;51.654;5.476;2023-04-01T09:54:10;14.02;;;5.70;;
72920;SDS011;61064;51.654;5.476;2023-04-01T10:07:51;13.73;;;4.90;;
72920;SDS011;61064;51.654;5.476;2023-04-01T10:16:35;12.43;;;4.60;;
72920;SDS011;61064;51.654;5.476;2023-04-01T10:22:40;11.00;;;4.33;;
72920;SDS011;61064;51.654;5.476;2023-04-01T10:25:18;10.48;;;4.38;;
72920;SDS011;61064;51.654;5.476;2023-04-01T10:28:18;10.43;;;4.07;;
72920;SDS011;61064;51.654;5.476;2023-04-01T10:34:05;9.60;;;3.80;;
72920;SDS011;61064;51.654;5.476;2023-04-01T10:42:27;8.48;;;3.60;;
72920;SDS011;61064;51.654;5.476;2023-04-01T10:48:23;9.80;;;3.85;;
72920;SDS011;61064;51.654;5.476;2023-04-01T10:59:20;9.70;;;4.07;;
72920;SDS011;61064;51.654;5.476;2023-04-01T11:11:18;9.55;;;4.13;;
72920;SDS011;61064;51.654;5.476;2023-04-01T11:16:43;11.52;;;4.15;;
72920;SDS011;61064;51.654;5.476;2023-04-01T11:36:06;11.20;;;4.50;;
72920;SDS011;61064;51.654;5.476;2023-04-01T12:01:20;10.13;;;3.63;;
72920;SDS011;61064;51.654;5.476;2023-04-01T12:18:02;6.20;;;1.80;;
72920;SDS011;61064;51.654;5.476;2023-04-01T12:20:42;7.47;;;2.47;;
72920;SDS011;61064;51.654;5.476;2023-04-01T12:31:47;6.90;;;2.40;;
72920;SDS011;61064;51.654;5.476;2023-04-01T12:37:03;7.80;;;2.63;;
72920;SDS011;61064;51.654;5.476;2023-04-01T12:40:54;6.90;;;2.40;;
72920;SDS011;61064;51.654;5.476;2023-04-01T12:43:21;7.60;;;2.70;;
72920;SDS011;61064;51.654;5.476;2023-04-01T12:59:24;9.30;;;3.08;;
72920;SDS011;61064;51.654;5.476;2023-04-01T13:02:12;9.30;;;3.00;;
72920;SDS011;61064;51.654;5.476;2023-04-01T13:05:09;8.82;;;3.17;;
72920;SDS011;61064;51.654;5.476;2023-04-01T13:27:09;10.50;;;3.35;;
72920;SDS011;61064;51.654;5.476;2023-04-01T13:29:37;8.27;;;2.43;;
72920;SDS011;61064;51.654;5.476;2023-04-01T13:35:30;7.93;;;2.55;;
72920;SDS011;61064;51.654;5.476;2023-04-01T13:43:49;9.60;;;2.93;;
72920;SDS011;61064;51.654;5.476;2023-04-01T13:55:08;9.25;;;3.70;;
72920;SDS011;61064;51.654;5.476;2023-04-01T13:57:52;10.40;;;3.60;;
72920;SDS011;61064;51.654;5.476;2023-04-01T14:06:37;9.85;;;4.05;;
72920;SDS011;61064;51.654;5.476;2023-04-01T14:12:10;10.53;;;4.60;;
72920;SDS011;61064;51.654;5.476;2023-04-01T14:17:35;11.57;;;4.20;;
72920;SDS011;61064;51.654;5.476;2023-04-01T14:25:50;10.68;;;4.25;;
72920;SDS011;61064;51.654;5.476;2023-04-01T14:43:00;10.37;;;3.93;;
72920;SDS011;61064;51.654;5.476;2023-04-01T14:54:14;9.90;;;4.13;;
72920;SDS011;61064;51.654;5.476;2023-04-01T14:56:48;10.90;;;4.30;;
72920;SDS011;61064;51.654;5.476;2023-04-01T15:02:09;11.10;;;4.10;;
72920;SDS011;61064;51.654;5.476;2023-04-01T15:05:10;10.63;;;4.45;;
72920;SDS011;61064;51.654;5.476;2023-04-01T15:07:46;10.77;;;4.20;;
72920;SDS011;61064;51.654;5.476;2023-04-01T15:10:31;11.03;;;4.33;;
72920;SDS011;61064;51.654;5.476;2023-04-01T15:19:41;13.35;;;5.00;;
72920;SDS011;61064;51.654;5.476;2023-04-01T15:28:03;12.25;;;4.90;;
72920;SDS011;61064;51.654;5.476;2023-04-01T15:30:44;11.30;;;4.55;;
72920;SDS011;61064;51.654;5.476;2023-04-01T15:36:35;10.25;;;4.28;;
72920;SDS011;61064;51.654;5.476;2023-04-01T15:39:11;11.43;;;4.00;;
72920;SDS011;61064;51.654;5.476;2023-04-01T15:45:07;11.32;;;4.35;;
72920;SDS011;61064;51.654;5.476;2023-04-01T15:52:58;10.07;;;3.93;;
72920;SDS011;61064;51.654;5.476;2023-04-01T15:55:43;11.40;;;4.57;;
72920;SDS011;61064;51.654;5.476;2023-04-01T15:58:49;10.68;;;4.55;;
72920;SDS011;61064;51.654;5.476;2023-04-01T16:04:05;10.25;;;3.90;;
72920;SDS011;61064;51.654;5.476;2023-04-01T16:12:21;10.98;;;4.25;;
72920;SDS011;61064;51.654;5.476;2023-04-01T16:22:49;9.73;;;4.03;;
72920;SDS011;61064;51.654;5.476;2023-04-01T16:25:39;9.57;;;4.00;;
72920;SDS011;61064;51.654;5.476;2023-04-01T16:36:58;8.88;;;4.20;;
72920;SDS011;61064;51.654;5.476;2023-04-01T16:39:52;8.23;;;3.80;;
72920;SDS011;61064;51.654;5.476;2023-04-01T16:42:56;7.47;;;3.45;;
72920;SDS011;61064;51.654;5.476;2023-04-01T16:45:53;12.93;;;6.45;;
72920;SDS011;61064;51.654;5.476;2023-04-01T16:48:25;7.43;;;3.17;;
72920;SDS011;61064;51.654;5.476;2023-04-01T16:50:59;8.25;;;3.38;;
72920;SDS011;61064;51.654;5.476;2023-04-01T17:01:27;8.90;;;3.40;;
72920;SDS011;61064;51.654;5.476;2023-04-01T17:04:00;8.60;;;3.42;;
72920;SDS011;61064;51.654;5.476;2023-04-01T17:06:53;7.57;;;3.35;;
72920;SDS011;61064;51.654;5.476;2023-04-01T17:14:41;7.90;;;3.57;;
72920;SDS011;61064;51.654;5.476;2023-04-01T17:25:51;11.18;;;6.20;;
72920;SDS011;61064;51.654;5.476;2023-04-01T17:31:20;9.25;;;5.03;;
72920;SDS011;61064;51.654;5.476;2023-04-01T17:34:02;12.68;;;6.55;;
72920;SDS011;61064;51.654;5.476;2023-04-01T17:42:35;7.80;;;4.03;;
72920;SDS011;61064;51.654;5.476;2023-04-01T17:53:29;11.20;;;6.10;;
72920;SDS011;61064;51.654;5.476;2023-04-01T18:01:49;7.80;;;3.65;;
72920;SDS011;61064;51.654;5.476;2023-04-01T18:04:29;14.13;;;6.07;;
72920;SDS011;61064;51.654;5.476;2023-04-01T18:15:40;7.55;;;3.60;;
72920;SDS011;61064;51.654;5.476;2023-04-01T18:23:59;8.23;;;3.80;;
72920;SDS011;61064;51.654;5.476;2023-04-01T18:26:36;7.35;;;3.20;;
72920;SDS011;61064;51.654;5.476;2023-04-01T18:31:45;8.18;;;3.55;;
72920;SDS011;61064;51.654;5.476;2023-04-01T18:37:25;8.80;;;3.90;;
72920;SDS011;61064;51.654;5.476;2023-04-01T18:43:14;7.78;;;3.95;;
72920;SDS011;61064;51.654;5.476;2023-04-01T18:45:54;7.88;;;3.53;;
72920;SDS011;61064;51.654;5.476;2023-04-01T18:57:01;8.93;;;3.83;;
72920;SDS011;61064;51.654;5.476;2023-04-01T18:59:40;8.35;;;3.85;;
72920;SDS011;61064;51.654;5.476;2023-04-01T19:10:26;21.02;;;12.00;;
72920;SDS011;61064;51.654;5.476;2023-04-01T19:21:26;9.45;;;5.00;;
72920;SDS011;61064;51.654;5.476;2023-04-01T19:35:35;9.02;;;4.80;;
72920;SDS011;61064;51.654;5.476;2023-04-01T19:41:16;8.25;;;3.55;;
72920;SDS011;61064;51.654;5.476;2023-04-01T19:44:15;8.25;;;3.90;;
72920;SDS011;61064;51.654;5.476;2023-04-01T19:46:58;9.20;;;4.20;;
72920;SDS011;61064;51.654;5.476;2023-04-01T19:55:25;11.25;;;5.18;;
72920;SDS011;61064;51.654;5.476;2023-04-01T19:58:00;10.13;;;4.75;;
72920;SDS011;61064;51.654;5.476;2023-04-01T20:00:43;9.37;;;4.10;;
72920;SDS011;61064;51.654;5.476;2023-04-01T20:08:57;10.10;;;5.22;;
72920;SDS011;61064;51.654;5.476;2023-04-01T20:11:50;14.75;;;5.97;;
72920;SDS011;61064;51.654;5.476;2023-04-01T20:17:18;9.57;;;5.22;;
72920;SDS011;61064;51.654;5.476;2023-04-01T20:19:51;9.90;;;5.10;;
72920;SDS011;61064;51.654;5.476;2023-04-01T20:22:32;10.23;;;5.30;;
72920;SDS011;61064;51.654;5.476;2023-04-01T20:25:05;10.15;;;5.28;;
72920;SDS011;61064;51.654;5.476;2023-04-01T20:27:39;10.17;;;5.33;;
72920;SDS011;61064;51.654;5.476;2023-04-01T20:33:12;9.75;;;5.25;;
72920;SDS011;61064;51.654;5.476;2023-04-01T20:38:49;9.45;;;4.95;;
72920;SDS011;61064;51.654;5.476;2023-04-01T20:44:19;9.43;;;4.70;;
72920;SDS011;61064;51.654;5.476;2023-04-01T20:49:41;9.82;;;5.00;;
72920;SDS011;61064;51.654;5.476;2023-04-01T20:52:32;10.25;;;4.93;;
72920;SDS011;61064;51.654;5.476;2023-04-01T21:03:41;8.82;;;4.28;;
72920;SDS011;61064;51.654;5.476;2023-04-01T21:12:20;9.10;;;4.15;;
72920;SDS011;61064;51.654;5.476;2023-04-01T21:25:33;9.25;;;4.55;;
72920;SDS011;61064;51.654;5.476;2023-04-01T21:33:32;9.82;;;4.85;;
72920;SDS011;61064;51.654;5.476;2023-04-01T21:50:42;9.13;;;4.37;;
72920;SDS011;61064;51.654;5.476;2023-04-01T21:56:38;11.32;;;5.75;;
72920;SDS011;61064;51.654;5.476;2023-04-01T21:59:31;11.95;;;5.97;;
72920;SDS011;61064;51.654;5.476;2023-04-01T22:07:46;13.43;;;7.03;;
72920;SDS011;61064;51.654;5.476;2023-04-01T22:10:28;12.87;;;6.90;;
72920;SDS011;61064;51.654;5.476;2023-04-01T22:20:59;14.43;;;7.03;;
72920;SDS011;61064;51.654;5.476;2023-04-01T22:23:31;12.60;;;6.67;;
72920;SDS011;61064;51.654;5.476;2023-04-01T22:26:05;13.57;;;7.55;;
72920;SDS011;61064;51.654;5.476;2023-04-01T22:29:00;12.70;;;7.30;;
72920;SDS011;61064;51.654;5.476;2023-04-01T22:31:41;13.52;;;6.97;;
72920;SDS011;61064;51.654;5.476;2023-04-01T22:36:58;11.60;;;6.23;;
72920;SDS011;61064;51.654;5.476;2023-04-01T22:42:31;10.07;;;5.78;;
72920;SDS011;61064;51.654;5.476;2023-04-01T22:45:15;9.73;;;5.35;;
72920;SDS011;61064;51.654;5.476;2023-04-01T22:48:05;10.23;;;5.75;;
72920;SDS011;61064;51.654;5.476;2023-04-01T22:53:46;10.52;;;5.55;;
72920;SDS011;61064;51.654;5.476;2023-04-01T22:56:36;11.57;;;5.93;;
72920;SDS011;61064;51.654;5.476;2023-04-01T23:01:40;10.65;;;6.05;;
72920;SDS011;61064;51.654;5.476;2023-04-01T23:04:10;10.77;;;5.70;;
72920;SDS011;61064;51.654;5.476;2023-04-01T23:06:42;11.40;;;6.20;;
72920;SDS011;61064;51.654;5.476;2023-04-01T23:09:14;13.40;;;6.25;;
72920;SDS011;61064;51.654;5.476;2023-04-01T23:11:53;11.50;;;6.15;;
72920;SDS011;61064;51.654;5.476;2023-04-01T23:16:51;10.00;;;5.43;;
72920;SDS011;61064;51.654;5.476;2023-04-01T23:19:26;11.23;;;5.97;;
72920;SDS011;61064;51.654;5.476;2023-04-01T23:22:01;9.97;;;5.50;;
72920;SDS011;61064;51.654;5.476;2023-04-01T23:24:38;10.93;;;5.28;;
72920;SDS011;61064;51.654;5.476;2023-04-01T23:27:23;9.43;;;5.03;;
72920;SDS011;61064;51.654;5.476;2023-04-01T23:29:56;9.80;;;4.82;;
72920;SDS011;61064;51.654;5.476;2023-04-01T23:32:24;9.47;;;4.90;;
72920;SDS011;61064;51.654;5.476;2023-04-01T23:34:52;9.93;;;5.30;;
72920;SDS011;61064;51.654;5.476;2023-04-01T23:37:21;10.95;;;5.55;;
72920;SDS011;61064;51.654;5.476;2023-04-01T23:39:54;10.32;;;5.38;;
72920;SDS011;61064;51.654;5.476;2023-04-01T23:44:51;12.23;;;5.75;;
72920;SDS011;61064;51.654;5.476;2023-04-01T23:47:30;10.70;;;5.40;;
72920;SDS011;61064;51.654;5.476;2023-04-01T23:49:58;10.55;;;5.38;;
72920;SDS011;61064;51.654;5.476;2023-04-01T23:52:27;10.93;;;6.00;;
72920;SDS011;61064;51.654;5.476;2023-04-01T23:54:57;10.90;;;5.67;;
72920;SDS011;61064;51.654;5.476;2023-04-01T23:57:36;10.57;;;5.65;;
